Kezdőlap
METAR-TAF:

METAR-TAF

Repülőterek :

Tri-County Regional Airport

Lone Rock, Wisconsin, Amerikai Egyesült Államok

földrajzi szélesség: 43-12-43N, földrajzi hosszúság: 090-10-53W, magasság: 219 m

Jelenlegi meteorológiai megfigyelések

A jelentés 13 perccel ezelõtt készült, 13:56 UTC
Nyugati szél 5 kt
Hőmérséklet 21°C
Páratartalom 88%
Légköri nyomás 1016 hPa
Látótávolság: 16.1 km
Kevés felhő 900 lábon
Borult 1400 lábon

METAR: KLNR 231356Z AUTO 27005KT 10SM FEW009 OVC014 21/19 A2999 RMK AO2 SLP146 T02110189

Idő: 09:09 (14:09 UTC)


TAF: hiányzik

Meteorológiai megfigyelések és előrejelzések több, mint 4000 repülőtéren (METAR és TAF jelentéseket).

A térképen piros és sárga pontok jelzik az elérhető meteorológiai állomásokat.

Mozgassa az egeret a pont fölött, hogy megjelenjen az állomás neve.

Azután kattintson az időjárási megfigyelések és előrejelzések megtekintéséhez.

A térkép megváltoztatása: kattintson a fekete keresztel jelölt zöld gombra ráközelítéshez, a vonallal jelölt zöld gombra távolításhoz, vagy a zöld nyilakra a szomszédos térképek eléréséhez.


METAR-TAF: